Time;durP1;ratioP1;P1;durP2;ratioP2;P2;SDS_P1;SDS_P2;PMS_P1;PMS_P2;Temp;Humidity;BMP_temperature;BMP_pressure;BME280_temperature;BME280_humidity;BME280_pressure;Samples;Min_cycle;Max_cycle;Signal;HPM_P1;HPM_P2
2021/05/08 00:00:06;;;;;;;10.38;7.40;;;5.60;99.90;;;;;;5092733;28;20196;-75
2021/05/08 00:02:32;;;;;;;9.82;7.25;;;5.60;99.90;;;;;;5087321;28;20565;-75
2021/05/08 00:04:59;;;;;;;11.15;7.05;;;5.70;99.90;;;;;;5094953;28;20257;-75
2021/05/08 00:07:25;;;;;;;12.77;7.28;;;5.70;99.90;;;;;;5087172;28;20200;-75
2021/05/08 00:09:52;;;;;;;10.98;8.25;;;5.70;99.90;;;;;;5087681;28;20200;-75
2021/05/08 00:12:19;;;;;;;9.32;7.25;;;5.70;99.90;;;;;;5087610;28;20215;-75
2021/05/08 00:14:45;;;;;;;8.52;6.88;;;5.70;99.90;;;;;;5087356;28;20208;-75
2021/05/08 00:17:12;;;;;;;11.50;7.80;;;5.70;99.90;;;;;;5093487;28;20200;-75
2021/05/08 00:19:38;;;;;;;9.23;7.45;;;5.70;99.90;;;;;;5087399;28;20232;-75
2021/05/08 00:22:05;;;;;;;10.50;6.78;;;5.70;99.90;;;;;;5088065;28;20669;-75
2021/05/08 00:24:31;;;;;;;9.00;6.70;;;5.70;99.90;;;;;;5093172;28;20220;-75
2021/05/08 00:26:58;;;;;;;9.75;7.43;;;5.70;99.90;;;;;;5092616;28;20204;-75
2021/05/08 00:29:25;;;;;;;12.40;8.13;;;5.50;99.90;;;;;;5086588;28;20227;-75
2021/05/08 00:31:52;;;;;;;11.25;7.55;;;5.50;99.90;;;;;;5087230;28;20590;-75
2021/05/08 00:34:18;;;;;;;11.93;7.10;;;5.50;99.90;;;;;;5087403;28;20647;-75
2021/05/08 00:36:45;;;;;;;13.32;8.13;;;5.40;99.90;;;;;;5087062;28;20230;-75
2021/05/08 00:39:11;;;;;;;13.23;7.88;;;5.40;99.90;;;;;;5075601;28;20217;-75
2021/05/08 00:41:37;;;;;;;12.77;7.85;;;5.40;99.90;;;;;;5086778;28;20215;-75
2021/05/08 00:44:04;;;;;;;14.73;7.05;;;5.30;99.90;;;;;;5086420;28;20228;-75
2021/05/08 00:46:32;;;;;;;11.93;8.02;;;5.40;99.90;;;;;;5086818;28;20204;-75
2021/05/08 00:48:59;;;;;;;9.80;6.82;;;5.30;99.90;;;;;;5091215;28;20200;-75
2021/05/08 00:51:26;;;;;;;9.73;7.07;;;5.30;99.90;;;;;;5093685;28;20255;-75
2021/05/08 00:53:53;;;;;;;12.73;8.23;;;5.40;99.90;;;;;;5087985;28;20230;-75
2021/05/08 00:56:20;;;;;;;9.43;6.85;;;5.50;99.90;;;;;;5087372;28;20554;-75
2021/05/08 00:58:46;;;;;;;9.85;7.18;;;5.60;99.90;;;;;;5093828;28;20204;-75
2021/05/08 01:01:13;;;;;;;12.20;8.52;;;5.70;99.90;;;;;;5087132;28;20211;-75
2021/05/08 01:03:42;;;;;;;11.63;7.93;;;5.70;99.90;;;;;;5086681;28;20258;-75
2021/05/08 01:06:09;;;;;;;12.00;7.32;;;5.80;99.90;;;;;;5086458;28;20228;-75
2021/05/08 01:08:37;;;;;;;12.98;7.60;;;5.90;99.90;;;;;;5086893;28;20205;-75
2021/05/08 01:11:04;;;;;;;10.25;7.97;;;5.80;99.90;;;;;;5091186;28;20198;-75
2021/05/08 01:13:31;;;;;;;12.18;8.10;;;5.80;99.90;;;;;;5086091;28;20563;-75
2021/05/08 01:15:58;;;;;;;12.98;8.30;;;5.80;99.90;;;;;;5087076;28;20204;-74
2021/05/08 01:18:25;;;;;;;12.68;8.10;;;5.90;99.90;;;;;;5092621;28;20208;-74
2021/05/08 01:20:52;;;;;;;16.13;8.65;;;5.90;99.90;;;;;;5092928;28;20208;-74
2021/05/08 01:23:19;;;;;;;11.68;8.68;;;5.90;99.90;;;;;;5086241;28;20204;-74
2021/05/08 01:25:46;;;;;;;11.15;8.07;;;5.90;99.90;;;;;;5091316;28;20228;-75
2021/05/08 01:28:12;;;;;;;12.40;8.32;;;6.00;99.90;;;;;;5087954;28;20207;-75
2021/05/08 01:30:39;;;;;;;11.85;7.70;;;6.10;99.90;;;;;;5089570;28;20607;-75
2021/05/08 01:33:06;;;;;;;12.18;8.93;;;6.10;99.90;;;;;;5085573;28;20204;-75
2021/05/08 01:35:34;;;;;;;10.32;7.95;;;6.10;99.90;;;;;;5092488;28;20623;-75
2021/05/08 01:38:00;;;;;;;11.23;7.85;;;6.10;99.90;;;;;;5086616;28;20204;-75
2021/05/08 01:40:29;;;;;;;11.75;8.27;;;6.00;99.90;;;;;;5085981;28;20579;-75
2021/05/08 01:42:56;;;;;;;15.05;8.25;;;6.10;99.90;;;;;;5092339;28;20204;-75
2021/05/08 01:45:24;;;;;;;11.93;8.38;;;6.00;99.90;;;;;;5089191;28;20224;-75
2021/05/08 01:47:52;;;;;;;12.82;8.60;;;6.00;99.90;;;;;;5093396;28;20203;-75
2021/05/08 01:50:21;;;;;;;10.77;8.27;;;6.00;99.90;;;;;;5087363;28;20204;-75
2021/05/08 01:52:48;;;;;;;14.98;9.13;;;6.10;99.90;;;;;;5086072;28;20215;-75
2021/05/08 01:55:16;;;;;;;14.27;8.10;;;6.10;99.90;;;;;;5086259;28;20216;-75
2021/05/08 01:57:46;;;;;;;12.05;7.78;;;6.20;99.90;;;;;;5086228;28;20204;-75
2021/05/08 02:00:16;;;;;;;12.48;8.20;;;6.10;99.90;;;;;;5089251;28;20201;-75
2021/05/08 02:02:42;;;;;;;11.25;8.27;;;6.20;99.90;;;;;;5088210;28;20211;-75
2021/05/08 02:05:09;;;;;;;10.48;8.02;;;6.10;99.90;;;;;;5087138;28;20278;-75
2021/05/08 02:07:38;;;;;;;11.23;8.52;;;6.10;99.90;;;;;;5090749;28;20767;-75
2021/05/08 02:10:06;;;;;;;10.70;8.07;;;6.10;99.90;;;;;;5085887;28;20215;-75
2021/05/08 02:12:34;;;;;;;14.70;7.78;;;6.10;99.90;;;;;;5085956;28;20226;-75
2021/05/08 02:15:01;;;;;;;12.38;8.13;;;6.00;99.90;;;;;;5085156;28;20268;-74
2021/05/08 02:17:28;;;;;;;12.38;8.02;;;6.00;99.90;;;;;;5085393;28;20208;-74
2021/05/08 02:19:54;;;;;;;11.45;7.78;;;5.90;99.90;;;;;;5085477;28;20197;-75
2021/05/08 02:22:21;;;;;;;12.20;9.38;;;5.80;99.90;;;;;;5085849;28;20204;-74
2021/05/08 02:24:47;;;;;;;10.23;7.50;;;5.70;99.90;;;;;;5085670;28;20234;-75
2021/05/08 02:27:13;;;;;;;8.68;6.93;;;5.70;99.90;;;;;;5085883;28;20212;-75
2021/05/08 02:29:40;;;;;;;10.02;6.68;;;5.60;99.90;;;;;;5090767;28;20200;-75
2021/05/08 02:32:08;;;;;;;12.60;8.18;;;5.60;99.90;;;;;;5092143;28;20200;-75
2021/05/08 02:34:34;;;;;;;13.80;8.40;;;5.60;99.90;;;;;;5085886;28;20234;-75
2021/05/08 02:37:01;;;;;;;10.32;8.25;;;5.60;99.90;;;;;;5085427;28;20697;-75
2021/05/08 02:39:27;;;;;;;17.65;8.63;;;5.50;99.90;;;;;;5090337;28;20197;-75
2021/05/08 02:41:53;;;;;;;14.50;7.70;;;5.50;99.90;;;;;;5092101;28;20200;-75
2021/05/08 02:44:20;;;;;;;13.15;8.60;;;5.50;99.90;;;;;;5086557;28;20220;-74
2021/05/08 02:46:46;;;;;;;13.20;6.88;;;5.40;99.90;;;;;;5087814;28;20271;-76
2021/05/08 02:49:14;;;;;;;10.93;7.32;;;5.30;99.90;;;;;;5089970;28;20204;-76
2021/05/08 02:51:40;;;;;;;10.75;7.32;;;5.30;99.90;;;;;;5092119;28;20201;-76
2021/05/08 02:54:07;;;;;;;11.70;7.47;;;5.20;99.90;;;;;;5093774;28;20204;-76
2021/05/08 02:56:33;;;;;;;13.48;8.25;;;5.20;99.90;;;;;;5095376;28;20559;-76
2021/05/08 02:58:59;;;;;;;11.65;7.55;;;5.20;99.90;;;;;;5102139;28;20200;-76
2021/05/08 03:01:26;;;;;;;12.60;7.75;;;5.20;99.90;;;;;;5088812;28;20204;-76
2021/05/08 03:03:52;;;;;;;13.15;7.72;;;5.30;99.90;;;;;;5093587;28;20224;-77
2021/05/08 03:06:19;;;;;;;14.90;9.68;;;5.30;99.90;;;;;;5088988;28;20228;-76
2021/05/08 03:08:46;;;;;;;14.27;9.75;;;5.30;99.90;;;;;;5089384;28;20204;-76
2021/05/08 03:11:13;;;;;;;14.25;9.35;;;5.30;99.90;;;;;;5092578;28;20200;-76
2021/05/08 03:13:39;;;;;;;11.60;8.48;;;5.30;99.90;;;;;;5089586;28;20213;-76
2021/05/08 03:16:05;;;;;;;13.05;9.10;;;5.30;99.90;;;;;;5100485;28;20212;-77
2021/05/08 03:18:32;;;;;;;13.90;8.63;;;5.40;99.90;;;;;;5093154;28;20208;-76
2021/05/08 03:20:59;;;;;;;12.90;10.10;;;5.40;99.90;;;;;;5088086;28;20201;-76
2021/05/08 03:23:26;;;;;;;15.48;9.73;;;5.50;99.90;;;;;;5087930;28;20208;-75
2021/05/08 03:25:53;;;;;;;13.20;9.48;;;5.50;99.90;;;;;;5093998;28;20227;-75
2021/05/08 03:28:19;;;;;;;13.75;9.75;;;5.50;99.90;;;;;;5088703;28;20196;-75
2021/05/08 03:30:45;;;;;;;12.38;9.10;;;5.50;99.90;;;;;;5090408;28;20211;-75
2021/05/08 03:33:12;;;;;;;13.38;9.43;;;5.60;99.90;;;;;;5088826;28;20201;-75
2021/05/08 03:35:38;;;;;;;11.65;9.18;;;5.70;99.90;;;;;;5098588;28;20204;-75
2021/05/08 03:38:05;;;;;;;12.93;9.02;;;5.70;99.90;;;;;;5088144;28;20267;-75
2021/05/08 03:40:32;;;;;;;19.88;10.05;;;5.80;99.90;;;;;;5093845;28;20205;-75
2021/05/08 03:42:58;;;;;;;19.13;9.27;;;5.80;99.90;;;;;;5088694;28;20200;-75
2021/05/08 03:45:25;;;;;;;15.57;9.25;;;5.80;99.90;;;;;;5088419;28;20266;-75
2021/05/08 03:47:51;;;;;;;14.77;10.55;;;5.80;99.90;;;;;;5088400;28;20205;-75
2021/05/08 03:50:17;;;;;;;13.13;9.13;;;5.80;99.90;;;;;;5087969;28;20205;-75
2021/05/08 03:52:44;;;;;;;14.07;9.20;;;5.80;99.90;;;;;;5088813;28;20204;-75
2021/05/08 03:55:11;;;;;;;18.80;10.52;;;5.90;99.90;;;;;;5091345;28;20484;-76
2021/05/08 03:57:38;;;;;;;19.27;11.50;;;5.90;99.90;;;;;;5087887;28;20308;-76
2021/05/08 04:00:06;;;;;;;14.10;10.23;;;5.90;99.90;;;;;;5088443;28;20197;-76
2021/05/08 04:02:32;;;;;;;18.13;11.95;;;6.00;99.90;;;;;;5093030;28;20200;-76
2021/05/08 04:04:59;;;;;;;17.85;11.40;;;6.00;99.90;;;;;;5101562;28;20287;-75
2021/05/08 04:07:25;;;;;;;16.50;10.95;;;6.00;99.90;;;;;;5087672;28;20201;-74
2021/05/08 04:09:52;;;;;;;18.48;11.35;;;6.10;99.90;;;;;;5088025;28;20212;-74
2021/05/08 04:12:18;;;;;;;18.73;12.40;;;6.10;99.90;;;;;;5088039;28;20563;-74
2021/05/08 04:14:45;;;;;;;15.77;11.13;;;6.10;99.90;;;;;;5091113;28;20655;-74
2021/05/08 04:17:12;;;;;;;18.98;10.68;;;6.10;99.90;;;;;;5093752;28;20208;-74
2021/05/08 04:19:38;;;;;;;16.00;11.27;;;6.10;99.90;;;;;;5094960;28;20208;-75
2021/05/08 04:22:05;;;;;;;17.17;10.93;;;6.00;99.90;;;;;;5090684;28;20192;-75
2021/05/08 04:24:31;;;;;;;15.88;11.40;;;6.00;99.90;;;;;;5091235;28;20222;-75
2021/05/08 04:26:57;;;;;;;19.58;10.80;;;6.00;99.90;;;;;;5087435;28;20674;-74
2021/05/08 04:29:24;;;;;;;23.52;12.55;;;6.00;99.90;;;;;;5088003;28;20204;-74
2021/05/08 04:31:51;;;;;;;19.08;11.68;;;6.00;99.90;;;;;;5087593;28;20230;-74
2021/05/08 04:34:19;;;;;;;17.63;10.95;;;6.00;99.90;;;;;;5093817;28;20220;-74
2021/05/08 04:36:45;;;;;;;18.70;11.48;;;6.10;99.90;;;;;;5091592;28;20208;-74
2021/05/08 04:39:13;;;;;;;18.60;10.10;;;6.10;99.90;;;;;;5086698;28;20215;-74
2021/05/08 04:41:39;;;;;;;19.73;11.75;;;6.10;99.90;;;;;;5091672;28;20230;-74
2021/05/08 04:44:06;;;;;;;18.27;11.32;;;6.10;99.90;;;;;;5091012;28;20211;-74
2021/05/08 04:46:33;;;;;;;17.88;11.18;;;6.10;99.90;;;;;;5094796;28;20211;-75
2021/05/08 04:49:00;;;;;;;20.10;11.77;;;6.10;99.90;;;;;;5087489;28;20204;-74
2021/05/08 04:51:27;;;;;;;16.55;11.10;;;6.10;99.90;;;;;;5087030;28;20204;-74
2021/05/08 04:53:53;;;;;;;17.38;11.35;;;6.10;99.90;;;;;;5087113;28;20204;-75
2021/05/08 04:56:20;;;;;;;18.05;11.65;;;6.10;99.90;;;;;;5086075;28;20196;-75
2021/05/08 04:58:46;;;;;;;20.48;12.25;;;6.20;99.90;;;;;;5087798;28;20204;-75
2021/05/08 05:01:13;;;;;;;19.88;12.18;;;6.20;99.90;;;;;;5091274;28;20200;-75
2021/05/08 05:03:40;;;;;;;19.00;11.95;;;6.20;99.90;;;;;;5088250;28;20239;-75
2021/05/08 05:06:07;;;;;;;18.23;11.50;;;6.20;99.90;;;;;;5086572;28;20224;-75
2021/05/08 05:08:33;;;;;;;17.02;11.07;;;6.20;99.90;;;;;;5092102;28;20226;-75
2021/05/08 05:11:06;;;;;;;21.48;11.90;;;6.20;99.90;;;;;;5086065;28;20215;-75
2021/05/08 05:13:33;;;;;;;21.55;11.77;;;6.30;99.90;;;;;;5087365;28;20212;-75
2021/05/08 05:15:59;;;;;;;22.95;12.77;;;6.30;99.90;;;;;;5087188;28;20204;-75
2021/05/08 05:18:25;;;;;;;17.48;11.10;;;6.30;99.90;;;;;;5086115;28;20209;-75
2021/05/08 05:20:53;;;;;;;20.75;13.13;;;6.30;99.90;;;;;;5089625;28;20199;-75
2021/05/08 05:23:20;;;;;;;19.92;12.27;;;6.30;99.90;;;;;;5087194;28;20223;-76
2021/05/08 05:25:47;;;;;;;16.70;11.82;;;6.40;99.90;;;;;;5091825;28;20223;-75
2021/05/08 05:28:21;;;;;;;19.45;13.35;;;6.50;99.90;;;;;;5086521;28;20213;-75
2021/05/08 05:30:47;;;;;;;22.90;13.82;;;6.60;99.90;;;;;;5085822;28;20228;-75
2021/05/08 05:33:14;;;;;;;22.63;13.60;;;6.80;99.90;;;;;;5095569;28;20260;-75
2021/05/08 05:35:40;;;;;;;19.48;12.48;;;7.00;99.90;;;;;;5090252;28;20218;-75
2021/05/08 05:38:07;;;;;;;16.95;11.90;;;7.20;99.90;;;;;;5092365;28;20205;-76
2021/05/08 05:40:35;;;;;;;19.33;11.50;;;7.40;99.90;;;;;;5091291;28;20199;-75
2021/05/08 05:43:01;;;;;;;22.30;11.13;;;7.60;99.90;;;;;;5091371;28;20207;-75
2021/05/08 05:45:27;;;;;;;14.85;10.50;;;7.90;99.90;;;;;;5089473;28;20215;-76
2021/05/08 05:47:55;;;;;;;12.73;9.43;;;8.10;99.90;;;;;;5091752;28;20204;-76
2021/05/08 05:50:22;;;;;;;18.17;9.45;;;8.20;99.90;;;;;;5091004;28;20204;-76
2021/05/08 05:52:48;;;;;;;12.23;9.18;;;8.40;99.90;;;;;;5085910;28;20196;-76
2021/05/08 05:55:15;;;;;;;15.18;9.20;;;8.50;99.90;;;;;;5086088;28;20275;-76
2021/05/08 05:57:42;;;;;;;11.35;8.25;;;8.50;99.90;;;;;;5091743;28;20201;-75
2021/05/08 06:00:10;;;;;;;13.50;8.60;;;8.60;99.90;;;;;;5086047;28;20204;-76
2021/05/08 06:02:36;;;;;;;11.77;8.75;;;8.60;99.90;;;;;;5088230;28;20208;-76
2021/05/08 06:05:03;;;;;;;10.52;8.10;;;8.60;99.90;;;;;;5085102;28;20224;-76
2021/05/08 06:07:30;;;;;;;13.38;7.95;;;8.70;99.90;;;;;;5096363;28;20203;-76
2021/05/08 06:09:56;;;;;;;8.80;6.50;;;8.80;99.90;;;;;;5085959;28;20256;-76
2021/05/08 06:12:23;;;;;;;14.13;7.10;;;8.80;99.90;;;;;;5088693;28;20210;-76
2021/05/08 06:14:50;;;;;;;7.90;6.50;;;9.00;99.90;;;;;;5085154;28;20462;-76
2021/05/08 06:17:16;;;;;;;8.88;6.72;;;9.10;99.90;;;;;;5085991;28;20463;-76
2021/05/08 06:19:43;;;;;;;8.30;6.13;;;9.30;99.90;;;;;;5086646;28;20208;-76
2021/05/08 06:22:09;;;;;;;8.05;6.40;;;9.50;99.90;;;;;;5095300;28;20218;-76
2021/05/08 06:24:36;;;;;;;8.13;5.80;;;9.70;99.90;;;;;;5089621;28;20220;-75
2021/05/08 06:27:02;;;;;;;7.65;6.47;;;9.90;99.90;;;;;;5089601;28;20196;-74
2021/05/08 06:29:29;;;;;;;10.77;6.97;;;10.00;99.90;;;;;;5093621;28;20204;-75
2021/05/08 06:31:57;;;;;;;10.40;6.10;;;10.20;99.90;;;;;;5090019;28;20208;-75
2021/05/08 06:34:23;;;;;;;7.65;5.78;;;10.60;99.90;;;;;;5089825;28;20206;-75
2021/05/08 06:36:50;;;;;;;7.85;6.40;;;11.00;99.90;;;;;;5089621;28;20204;-74
2021/05/08 06:39:16;;;;;;;7.35;5.53;;;11.30;99.90;;;;;;5096643;28;20209;-74
2021/05/08 06:41:42;;;;;;;8.02;5.55;;;11.60;99.90;;;;;;5089815;28;20200;-74
2021/05/08 06:44:09;;;;;;;9.52;5.53;;;11.90;99.90;;;;;;5090843;28;20201;-77
2021/05/08 06:46:35;;;;;;;6.32;4.95;;;12.20;99.90;;;;;;5096241;28;21000;-77
2021/05/08 06:49:03;;;;;;;8.45;5.90;;;12.30;99.90;;;;;;5096658;28;20208;-77
2021/05/08 06:51:29;;;;;;;7.15;5.00;;;12.60;99.90;;;;;;5096051;28;20253;-78
2021/05/08 06:53:56;;;;;;;7.40;5.32;;;12.70;99.90;;;;;;5090949;28;20209;-77
2021/05/08 06:56:23;;;;;;;5.15;4.47;;;12.90;99.90;;;;;;5090334;28;20210;-77
2021/05/08 06:58:50;;;;;;;6.03;5.10;;;12.90;99.90;;;;;;5089163;28;20491;-77
2021/05/08 07:01:17;;;;;;;5.15;4.30;;;13.00;99.90;;;;;;5092725;28;20270;-77
2021/05/08 07:03:43;;;;;;;7.40;5.50;;;13.00;99.90;;;;;;5089733;28;20760;-77
2021/05/08 07:06:11;;;;;;;7.10;4.90;;;12.90;99.90;;;;;;5090921;28;20224;-78
2021/05/08 07:08:37;;;;;;;10.77;6.60;;;12.90;99.90;;;;;;5095165;28;20202;-77
2021/05/08 07:11:04;;;;;;;8.68;4.85;;;12.90;99.90;;;;;;5090351;28;20202;-77
2021/05/08 07:13:30;;;;;;;5.82;4.20;;;12.80;99.90;;;;;;5089671;28;20197;-77
2021/05/08 07:15:57;;;;;;;4.90;4.38;;;12.80;99.90;;;;;;5097143;28;20213;-77
2021/05/08 07:18:24;;;;;;;7.80;5.00;;;12.80;99.90;;;;;;5091426;28;20202;-77
2021/05/08 07:20:51;;;;;;;8.45;4.10;;;12.90;99.90;;;;;;5099817;28;20231;-77
2021/05/08 07:23:18;;;;;;;5.78;4.28;;;12.90;99.90;;;;;;5094018;28;20195;-77
2021/05/08 07:25:45;;;;;;;6.80;4.00;;;13.00;99.90;;;;;;5094891;28;20232;-78
2021/05/08 07:28:13;;;;;;;4.57;4.18;;;13.00;99.90;;;;;;5089857;28;20204;-77
2021/05/08 07:30:40;;;;;;;6.20;4.10;;;13.00;99.90;;;;;;5096262;28;20201;-77
2021/05/08 07:33:07;;;;;;;6.10;4.28;;;13.10;99.90;;;;;;5095176;28;20223;-77
2021/05/08 07:35:33;;;;;;;4.80;4.03;;;13.10;99.90;;;;;;5096620;28;20216;-77
2021/05/08 07:38:00;;;;;;;6.60;4.55;;;13.10;99.90;;;;;;5090948;28;20190;-77
2021/05/08 07:40:30;;;;;;;4.20;3.80;;;13.00;99.90;;;;;;5089856;28;20228;-77
2021/05/08 07:42:56;;;;;;;5.63;4.65;;;12.80;99.90;;;;;;5089137;28;20201;-77
2021/05/08 07:45:23;;;;;;;7.03;4.18;;;12.70;99.90;;;;;;5089218;28;20255;-77
2021/05/08 07:47:50;;;;;;;4.85;3.90;;;12.70;99.90;;;;;;5089595;28;20226;-77
2021/05/08 07:50:16;;;;;;;6.80;5.05;;;12.50;99.90;;;;;;5091475;28;20197;-77
2021/05/08 07:52:42;;;;;;;8.35;3.72;;;12.50;99.90;;;;;;5094780;28;20244;-77
2021/05/08 07:55:09;;;;;;;5.10;3.83;;;12.50;99.90;;;;;;5088950;28;20203;-77
2021/05/08 07:57:37;;;;;;;7.32;4.60;;;12.60;99.90;;;;;;5088726;28;20211;-77
2021/05/08 08:00:06;;;;;;;8.25;5.30;;;12.70;99.90;;;;;;5089964;28;20203;-77
2021/05/08 08:02:33;;;;;;;4.93;4.07;;;12.90;99.90;;;;;;5093877;28;20197;-77
2021/05/08 08:05:00;;;;;;;7.20;4.45;;;13.00;99.90;;;;;;5090017;28;20224;-77
2021/05/08 08:07:27;;;;;;;9.35;4.78;;;13.10;99.90;;;;;;5089703;28;20224;-77
2021/05/08 08:09:54;;;;;;;5.90;4.28;;;13.30;99.90;;;;;;5093298;28;20205;-77
2021/05/08 08:12:20;;;;;;;5.80;3.88;;;13.40;99.90;;;;;;5094266;28;20204;-77
2021/05/08 08:14:48;;;;;;;6.95;4.63;;;13.50;99.90;;;;;;5088982;28;20235;-77
2021/05/08 08:17:14;;;;;;;6.45;4.00;;;13.50;99.90;;;;;;5089650;28;20213;-77
2021/05/08 08:19:41;;;;;;;7.38;4.00;;;13.60;99.90;;;;;;5089949;28;20215;-77
2021/05/08 08:22:07;;;;;;;4.75;4.03;;;13.70;99.90;;;;;;5089668;28;20204;-77
2021/05/08 08:24:34;;;;;;;5.18;4.30;;;13.80;99.90;;;;;;5092203;28;20210;-77
2021/05/08 08:27:00;;;;;;;5.57;3.90;;;13.90;99.90;;;;;;5094328;28;20209;-77
2021/05/08 08:29:28;;;;;;;6.55;3.88;;;14.00;99.90;;;;;;5096780;28;20208;-77
2021/05/08 08:31:55;;;;;;;5.97;4.68;;;14.10;99.90;;;;;;5087838;28;20257;-77
2021/05/08 08:34:22;;;;;;;7.03;4.47;;;14.10;99.90;;;;;;5098530;28;20201;-78
2021/05/08 08:36:48;;;;;;;10.00;4.47;;;14.20;99.90;;;;;;5088182;28;20205;-78
2021/05/08 08:39:15;;;;;;;5.18;4.07;;;14.10;99.30;;;;;;5088908;28;20225;-78
2021/05/08 08:41:42;;;;;;;7.28;4.30;;;14.00;99.90;;;;;;5088166;28;20206;-78
2021/05/08 08:44:10;;;;;;;6.35;3.83;;;14.10;99.90;;;;;;5089818;28;20236;-78
2021/05/08 08:46:40;;;;;;;7.63;4.97;;;14.30;99.30;;;;;;5091067;28;20218;-78
2021/05/08 08:49:08;;;;;;;4.15;3.75;;;14.40;99.90;;;;;;5088999;28;20311;-78
2021/05/08 08:51:35;;;;;;;9.25;3.95;;;14.60;99.90;;;;;;5095619;28;20215;-78
2021/05/08 08:54:01;;;;;;;5.50;3.67;;;14.60;99.90;;;;;;5088708;28;20206;-78
2021/05/08 08:56:33;;;;;;;4.30;3.72;;;14.70;99.60;;;;;;5090179;28;20554;-78
2021/05/08 08:59:03;;;;;;;7.85;4.60;;;14.90;99.70;;;;;;5097721;28;20267;-77
2021/05/08 09:01:30;;;;;;;6.47;4.43;;;14.90;99.90;;;;;;5088270;28;20541;-79
2021/05/08 09:03:57;;;;;;;10.75;4.72;;;14.90;99.50;;;;;;5092365;28;20235;-78
2021/05/08 09:06:26;;;;;;;5.53;4.30;;;14.80;99.70;;;;;;5088996;28;20321;-78
2021/05/08 09:08:53;;;;;;;5.68;4.05;;;14.90;99.90;;;;;;5089055;28;20207;-78
2021/05/08 09:11:22;;;;;;;5.97;4.30;;;14.90;98.40;;;;;;5091420;28;20270;-77
2021/05/08 09:13:50;;;;;;;5.07;3.90;;;14.90;99.50;;;;;;5087280;28;20202;-78
2021/05/08 09:16:17;;;;;;;9.13;3.65;;;15.10;99.90;;;;;;5089619;28;20203;-78
2021/05/08 09:18:43;;;;;;;5.88;4.00;;;15.20;98.50;;;;;;5092867;28;20313;-78
2021/05/08 09:21:27;;;;;;;9.43;3.83;;;15.30;99.20;;;;;;5092303;28;20272;-78
2021/05/08 09:23:59;;;;;;;5.15;3.70;;;15.30;97.50;;;;;;5088722;28;20190;-78
2021/05/08 09:26:37;;;;;;;6.43;3.53;;;15.40;98.30;;;;;;5090121;28;20229;-78
2021/05/08 09:29:04;;;;;;;4.65;3.58;;;15.70;97.50;;;;;;5089564;28;20214;-78
2021/05/08 09:31:30;;;;;;;4.72;3.08;;;16.00;97.30;;;;;;5092730;28;20197;-77
2021/05/08 09:33:57;;;;;;;3.88;3.42;;;16.40;97.60;;;;;;5094120;28;20209;-78
2021/05/08 09:36:23;;;;;;;8.52;4.30;;;16.70;95.50;;;;;;5089920;28;20229;-78
2021/05/08 09:38:50;;;;;;;5.97;3.15;;;16.80;95.70;;;;;;5089696;28;20206;-78
2021/05/08 09:41:19;;;;;;;4.13;3.28;;;16.80;95.90;;;;;;5087536;28;20203;-78
2021/05/08 09:43:46;;;;;;;5.65;4.18;;;16.80;96.40;;;;;;5088184;28;20626;-78
2021/05/08 09:46:24;;;;;;;6.95;4.05;;;16.90;96.50;;;;;;5087782;28;20272;-78
2021/05/08 09:49:09;;;;;;;9.60;4.15;;;17.00;94.50;;;;;;5087453;28;20294;-78
2021/05/08 09:51:36;;;;;;;6.22;3.42;;;17.10;94.00;;;;;;5092385;28;20207;-78
2021/05/08 09:54:14;;;;;;;6.32;4.40;;;17.10;93.40;;;;;;5094944;28;20217;-78
2021/05/08 09:56:41;;;;;;;4.75;3.65;;;17.10;94.70;;;;;;5085450;28;20214;-78
2021/05/08 09:59:26;;;;;;;5.10;3.67;;;17.40;95.30;;;;;;5086699;28;20210;-78
2021/05/08 10:08:15;;;;;;;5.10;4.30;;;18.60;93.00;;;;;;5103228;28;20231;-77
2021/05/08 10:10:42;;;;;;;5.40;3.72;;;18.80;91.10;;;;;;5108611;28;20210;-77
2021/05/08 10:13:09;;;;;;;9.10;3.60;;;19.20;90.70;;;;;;5111316;28;20207;-77
2021/05/08 10:15:38;;;;;;;7.60;3.88;;;19.40;90.20;;;;;;5115838;28;20754;-77
2021/05/08 10:18:07;;;;;;;5.00;3.50;;;19.60;89.90;;;;;;5106359;28;20559;-77
2021/05/08 10:20:34;;;;;;;5.32;3.67;;;19.60;88.90;;;;;;5117321;28;20206;-77
2021/05/08 10:23:07;;;;;;;5.70;4.10;;;19.70;85.20;;;;;;5103653;28;20228;-77
2021/05/08 10:25:38;;;;;;;6.50;4.13;;;19.50;87.10;;;;;;5110704;28;20192;-77
2021/05/08 10:28:05;;;;;;;9.32;3.67;;;19.40;87.10;;;;;;5110642;28;20221;-77
2021/05/08 10:30:34;;;;;;;4.82;3.35;;;19.20;88.20;;;;;;5107643;28;20254;-77
2021/05/08 10:33:06;;;;;;;4.53;3.03;;;19.00;88.10;;;;;;5108339;28;20210;-78
2021/05/08 10:35:41;;;;;;;12.32;3.05;;;18.80;84.60;;;;;;5113952;28;20222;-78
2021/05/08 10:38:10;;;;;;;7.22;3.83;;;18.50;85.80;;;;;;5106884;28;20241;-77
2021/05/08 10:40:53;;;;;;;7.43;3.72;;;18.40;87.60;;;;;;5117997;28;20207;-78
2021/05/08 10:43:43;;;;;;;7.45;3.55;;;18.40;86.70;;;;;;5111717;28;20252;-77
2021/05/08 10:46:11;;;;;;;6.85;3.38;;;18.50;85.60;;;;;;5107895;28;20208;-77
2021/05/08 10:48:37;;;;;;;4.47;3.17;;;18.50;84.50;;;;;;5109281;28;20208;-77
2021/05/08 10:51:04;;;;;;;7.35;3.13;;;18.50;87.20;;;;;;5103830;28;20205;-77
2021/05/08 10:53:42;;;;;;;7.53;3.42;;;18.60;85.70;;;;;;5103264;28;20604;-76
2021/05/08 10:56:31;;;;;;;5.35;3.90;;;18.70;86.10;;;;;;5108663;28;20206;-74
2021/05/08 10:59:06;;;;;;;2.92;2.33;;;18.50;85.50;;;;;;5110593;28;20196;-75
2021/05/08 11:01:43;;;;;;;6.20;3.05;;;18.40;86.20;;;;;;5108612;28;20192;-75
2021/05/08 11:04:10;;;;;;;3.33;2.72;;;18.40;84.20;;;;;;5107841;28;20238;-74
2021/05/08 11:06:36;;;;;;;8.02;2.80;;;18.20;83.20;;;;;;5109528;28;20210;-74
2021/05/08 11:09:05;;;;;;;4.88;3.40;;;18.10;84.20;;;;;;5106844;28;20211;-75
2021/05/08 11:11:53;;;;;;;4.45;3.10;;;17.90;82.40;;;;;;5100971;28;20252;-74
2021/05/08 11:14:51;;;;;;;5.07;3.05;;;17.90;85.80;;;;;;5105990;28;20272;-74
2021/05/08 11:17:18;;;;;;;7.55;2.90;;;17.90;87.10;;;;;;5092709;28;20517;-74
2021/05/08 11:19:44;;;;;;;4.75;2.40;;;17.90;85.90;;;;;;5087525;28;20205;-74
2021/05/08 11:22:14;;;;;;;2.53;1.60;;;17.80;84.60;;;;;;5087815;28;20205;-74
2021/05/08 11:24:41;;;;;;;3.75;1.30;;;17.70;82.00;;;;;;5096871;28;20292;-74
2021/05/08 11:27:28;;;;;;;3.38;1.50;;;17.80;83.00;;;;;;5091095;28;20291;-74
2021/05/08 11:30:03;;;;;;;2.72;1.60;;;17.90;83.20;;;;;;5086882;28;20201;-74
2021/05/08 11:32:30;;;;;;;1.75;1.65;;;18.00;81.80;;;;;;5087509;28;20223;-74
2021/05/08 11:34:57;;;;;;;2.22;2.03;;;17.90;81.50;;;;;;5089926;28;20208;-74
2021/05/08 11:37:23;;;;;;;2.10;1.80;;;18.00;82.00;;;;;;5088607;28;20214;-74
2021/05/08 11:39:50;;;;;;;3.95;2.03;;;18.00;80.00;;;;;;5093010;28;20273;-74
2021/05/08 11:42:17;;;;;;;4.75;1.58;;;18.10;82.40;;;;;;5087890;28;20212;-74
2021/05/08 11:44:46;;;;;;;2.17;1.38;;;18.20;82.40;;;;;;5094329;28;20232;-74
2021/05/08 11:47:30;;;;;;;3.10;1.67;;;18.20;82.00;;;;;;5087968;28;20204;-74
2021/05/08 11:49:58;;;;;;;5.85;4.25;;;18.30;82.70;;;;;;5095683;28;20221;-75
2021/05/08 11:52:35;;;;;;;4.15;1.65;;;18.10;79.80;;;;;;5088078;28;20204;-75
2021/05/08 11:55:04;;;;;;;5.18;2.00;;;18.00;80.40;;;;;;5096755;28;20196;-74
2021/05/08 11:57:31;;;;;;;5.82;2.63;;;17.90;82.30;;;;;;5089268;28;20305;-74
2021/05/08 11:59:58;;;;;;;7.00;4.03;;;17.90;82.40;;;;;;5090279;28;20199;-74
2021/05/08 12:02:26;;;;;;;3.03;2.20;;;17.90;84.30;;;;;;5096046;28;20204;-74
2021/05/08 12:04:55;;;;;;;8.02;5.30;;;17.80;83.70;;;;;;5087797;28;20234;-75
2021/05/08 12:07:23;;;;;;;3.00;2.00;;;17.80;83.30;;;;;;5089295;28;20206;-74
2021/05/08 12:09:50;;;;;;;3.08;2.88;;;17.80;84.50;;;;;;5096257;28;20222;-74
2021/05/08 12:12:17;;;;;;;2.83;1.77;;;17.60;85.00;;;;;;5096029;28;20783;-74
2021/05/08 12:14:45;;;;;;;2.40;1.50;;;17.50;89.90;;;;;;5091760;28;20208;-75
2021/05/08 12:17:13;;;;;;;1.40;1.30;;;17.30;90.30;;;;;;5089250;28;20230;-74
2021/05/08 12:19:43;;;;;;;1.60;1.50;;;17.20;92.30;;;;;;5089411;28;20204;-74
2021/05/08 12:22:10;;;;;;;1.92;1.60;;;16.80;91.90;;;;;;5087884;28;20275;-74
2021/05/08 12:24:37;;;;;;;1.45;1.20;;;16.70;92.90;;;;;;5092907;28;20235;-74
2021/05/08 12:27:04;;;;;;;1.30;1.05;;;16.50;94.80;;;;;;5092084;28;20199;-74
2021/05/08 12:29:54;;;;;;;3.53;1.40;;;16.40;93.90;;;;;;5089328;28;20214;-75
2021/05/08 12:32:22;;;;;;;1.92;1.83;;;16.30;93.70;;;;;;5086633;28;20230;-75
2021/05/08 12:34:53;;;;;;;1.88;1.42;;;16.30;97.10;;;;;;5088355;28;20210;-75
2021/05/08 12:37:19;;;;;;;1.67;1.58;;;16.30;97.60;;;;;;5087861;28;20198;-75
2021/05/08 12:39:47;;;;;;;3.20;1.50;;;16.20;99.90;;;;;;5092698;28;20205;-74
2021/05/08 12:42:13;;;;;;;1.95;1.85;;;16.20;99.90;;;;;;5089633;28;20228;-75
2021/05/08 12:44:44;;;;;;;2.00;1.50;;;16.00;99.90;;;;;;5091891;28;20243;-75
2021/05/08 12:47:18;;;;;;;2.30;2.10;;;15.90;99.90;;;;;;5094602;28;20209;-75
2021/05/08 12:50:06;;;;;;;1.60;1.50;;;15.80;99.90;;;;;;5099277;28;20206;-74
2021/05/08 12:52:34;;;;;;;2.42;2.22;;;15.70;99.90;;;;;;5096516;28;20242;-74
2021/05/08 12:55:01;;;;;;;1.80;1.70;;;15.70;99.90;;;;;;5098618;28;20210;-75